createdAt,value
2018-11-11T00:00:14.078Z,51.70
2018-11-11T00:02:43.117Z,53.93
2018-11-11T00:05:12.262Z,59.00
2018-11-11T00:07:41.310Z,53.50
2018-11-11T00:10:10.008Z,56.03
2018-11-11T00:12:39.538Z,47.23
2018-11-11T00:15:11.795Z,54.80
2018-11-11T00:17:41.671Z,46.80
2018-11-11T00:20:11.393Z,53.27
2018-11-11T00:22:40.494Z,49.07
2018-11-11T00:25:09.866Z,51.13
2018-11-11T00:27:39.451Z,48.87
2018-11-11T00:30:10.396Z,44.40
2018-11-11T00:32:39.251Z,48.77
2018-11-11T00:35:08.397Z,47.03
2018-11-11T00:37:37.223Z,46.50
2018-11-11T00:40:06.150Z,48.20
2018-11-11T00:42:35.327Z,50.93
2018-11-11T00:45:04.219Z,47.00
2018-11-11T00:47:33.045Z,46.70
2018-11-11T00:50:02.105Z,44.57
2018-11-11T00:52:31.082Z,49.70
2018-11-11T00:55:00.181Z,45.63
2018-11-11T00:57:29.430Z,50.87
2018-11-11T00:59:58.060Z,47.10
2018-11-11T01:02:27.074Z,47.47
2018-11-11T01:04:55.812Z,44.77
2018-11-11T01:07:24.582Z,48.43
2018-11-11T01:09:53.339Z,50.37
2018-11-11T01:12:22.271Z,50.50
2018-11-11T01:14:50.992Z,48.37
2018-11-11T01:17:20.244Z,51.20
2018-11-11T01:19:49.164Z,45.80
2018-11-11T01:22:18.276Z,47.97
2018-11-11T01:24:47.142Z,47.97
2018-11-11T01:27:15.941Z,45.57
2018-11-11T01:29:44.717Z,48.77
2018-11-11T01:32:13.553Z,53.73
2018-11-11T01:34:42.330Z,49.60
2018-11-11T01:37:11.040Z,48.43
2018-11-11T01:39:39.720Z,50.40
2018-11-11T01:42:08.769Z,47.00
2018-11-11T01:44:37.694Z,57.00
2018-11-11T01:47:06.582Z,52.13
2018-11-11T01:49:35.705Z,48.63
2018-11-11T01:52:04.813Z,49.40
2018-11-11T01:54:33.525Z,53.40
2018-11-11T01:57:02.280Z,54.50
2018-11-11T01:59:31.124Z,53.70
2018-11-11T02:01:59.906Z,55.00
2018-11-11T02:04:28.553Z,59.97
2018-11-11T02:06:57.321Z,51.80
2018-11-11T02:09:26.010Z,61.37
2018-11-11T02:11:54.945Z,59.27
2018-11-11T02:14:24.036Z,57.03
2018-11-11T02:16:52.945Z,60.20
2018-11-11T02:19:21.839Z,58.67
2018-11-11T02:21:50.718Z,53.50
2018-11-11T02:24:19.715Z,55.13
2018-11-11T02:26:48.773Z,57.57
2018-11-11T02:29:17.476Z,54.43
2018-11-11T02:31:46.061Z,58.77
2018-11-11T02:34:15.082Z,61.97
2018-11-11T02:36:43.815Z,57.03
2018-11-11T02:39:12.511Z,55.07
2018-11-11T02:41:41.266Z,54.33
2018-11-11T02:44:10.242Z,52.53
2018-11-11T02:46:39.226Z,55.43
2018-11-11T02:49:08.243Z,54.97
2018-11-11T02:51:37.099Z,55.27
2018-11-11T02:54:06.060Z,54.60
2018-11-11T02:56:34.945Z,53.70
2018-11-11T02:59:03.801Z,49.40
2018-11-11T03:01:32.519Z,47.87
2018-11-11T03:04:01.745Z,48.13
2018-11-11T03:06:30.622Z,56.67
2018-11-11T03:08:59.357Z,52.90
2018-11-11T03:11:28.443Z,52.07
2018-11-11T03:13:57.142Z,51.87
2018-11-11T03:16:26.191Z,54.43
2018-11-11T03:18:55.127Z,50.67
2018-11-11T03:21:24.270Z,48.13
2018-11-11T03:23:53.110Z,48.53
2018-11-11T03:26:22.167Z,52.77
2018-11-11T03:28:51.232Z,59.47
2018-11-11T03:31:20.128Z,48.17
2018-11-11T03:33:48.891Z,51.43
2018-11-11T03:36:17.605Z,55.73
2018-11-11T03:38:46.540Z,56.93
2018-11-11T03:41:15.458Z,50.80
2018-11-11T03:43:44.566Z,52.53
2018-11-11T03:46:13.490Z,58.83
2018-11-11T03:48:42.199Z,78.93
2018-11-11T03:51:11.018Z,54.03
2018-11-11T03:53:40.177Z,54.90
2018-11-11T03:56:09.101Z,54.87
2018-11-11T03:58:38.374Z,55.20
2018-11-11T04:01:07.829Z,54.47
2018-11-11T04:03:36.484Z,52.63
2018-11-11T04:06:05.074Z,49.33
2018-11-11T04:08:33.816Z,49.53
2018-11-11T04:11:02.807Z,51.80
2018-11-11T04:13:31.903Z,54.40
2018-11-11T04:16:01.029Z,51.40
2018-11-11T04:18:30.011Z,49.57
2018-11-11T04:20:59.059Z,48.40
2018-11-11T04:23:27.948Z,51.43
2018-11-11T04:25:56.688Z,46.30
2018-11-11T04:28:25.678Z,47.73
2018-11-11T04:30:54.598Z,49.57
2018-11-11T04:33:23.206Z,49.60
2018-11-11T04:35:51.967Z,53.20
2018-11-11T04:38:20.630Z,49.73
2018-11-11T04:40:49.566Z,51.57
2018-11-11T04:43:18.877Z,50.83
2018-11-11T04:45:47.810Z,49.83
2018-11-11T04:48:16.713Z,55.63
2018-11-11T04:50:45.765Z,53.50
2018-11-11T04:53:14.685Z,53.57
2018-11-11T04:55:43.592Z,63.00
2018-11-11T04:58:12.234Z,60.03
2018-11-11T05:00:41.191Z,55.13
2018-11-11T05:03:09.874Z,61.87
2018-11-11T05:05:38.534Z,56.27
2018-11-11T05:08:07.210Z,61.67
2018-11-11T05:10:36.063Z,63.03
2018-11-11T05:13:05.161Z,62.10
2018-11-11T05:15:34.146Z,65.43
2018-11-11T05:18:02.996Z,61.60
2018-11-11T05:20:31.930Z,72.43
2018-11-11T05:23:00.686Z,59.03
2018-11-11T05:25:29.658Z,58.80
2018-11-11T05:27:58.684Z,60.23
2018-11-11T05:30:27.695Z,58.83
2018-11-11T05:32:56.537Z,57.03
2018-11-11T05:35:25.357Z,70.07
2018-11-11T05:37:53.965Z,59.77
2018-11-11T05:40:23.059Z,65.53
2018-11-11T05:42:54.670Z,60.10
2018-11-11T05:45:24.505Z,81.77
2018-11-11T05:47:53.467Z,58.60
2018-11-11T05:50:22.380Z,59.87
2018-11-11T05:52:51.155Z,56.73
2018-11-11T05:55:20.059Z,58.83
2018-11-11T05:57:49.128Z,58.13
2018-11-11T06:00:18.662Z,53.63
2018-11-11T06:02:47.347Z,58.23
2018-11-11T06:05:16.562Z,53.20
2018-11-11T06:07:45.311Z,57.77
2018-11-11T06:10:15.150Z,55.63
2018-11-11T06:12:44.189Z,56.10
2018-11-11T06:15:13.622Z,51.67
2018-11-11T06:17:42.591Z,48.13
2018-11-11T06:20:14.269Z,51.27
2018-11-11T06:22:43.438Z,45.20
2018-11-11T06:25:12.611Z,52.73
2018-11-11T06:27:41.315Z,47.10
2018-11-11T06:30:11.027Z,44.83
2018-11-11T06:32:39.861Z,48.27
2018-11-11T06:35:08.577Z,38.40
2018-11-11T06:37:37.304Z,52.13
2018-11-11T06:40:07.972Z,45.53
2018-11-11T06:42:36.873Z,48.20
2018-11-11T06:45:07.184Z,51.70
2018-11-11T06:47:36.338Z,47.27
2018-11-11T06:50:06.024Z,48.47
2018-11-11T06:52:34.760Z,62.23
2018-11-11T06:55:03.638Z,54.83
2018-11-11T06:57:32.735Z,53.50
2018-11-11T07:00:01.829Z,49.23
2018-11-11T07:02:36.936Z,62.93
2018-11-11T07:05:06.906Z,52.37
2018-11-11T07:07:35.834Z,60.10
2018-11-11T07:10:05.043Z,55.10
2018-11-11T07:12:33.707Z,66.27
2018-11-11T07:15:02.457Z,54.10
2018-11-11T07:17:31.326Z,62.53
2018-11-11T07:20:00.288Z,67.37
2018-11-11T07:22:29.118Z,53.10
2018-11-11T07:24:58.118Z,58.17
2018-11-11T07:27:27.064Z,56.30
2018-11-11T07:29:55.687Z,58.13
2018-11-11T07:32:24.410Z,57.00
2018-11-11T07:34:53.275Z,52.70
2018-11-11T07:37:22.032Z,51.77
2018-11-11T07:39:50.839Z,54.40
2018-11-11T07:42:19.755Z,60.57
2018-11-11T07:44:48.602Z,56.10
2018-11-11T07:47:17.678Z,66.53
2018-11-11T07:49:46.581Z,61.70
2018-11-11T07:52:15.452Z,55.13
2018-11-11T07:54:44.657Z,50.23
2018-11-11T07:57:13.798Z,59.60
2018-11-11T07:59:42.903Z,60.03
2018-11-11T08:02:11.689Z,55.17
2018-11-11T08:04:40.358Z,53.00
2018-11-11T08:07:09.250Z,56.93
2018-11-11T08:09:38.058Z,53.50
2018-11-11T08:12:07.584Z,57.20
2018-11-11T08:14:36.568Z,55.40
2018-11-11T08:17:05.868Z,53.17
2018-11-11T08:19:34.915Z,53.97
2018-11-11T08:22:03.797Z,55.23
2018-11-11T08:24:32.791Z,57.30
2018-11-11T08:27:02.134Z,60.70
2018-11-11T08:29:30.995Z,53.13
2018-11-11T08:31:59.672Z,56.27
2018-11-11T08:34:28.431Z,56.50
2018-11-11T08:36:57.094Z,51.90
2018-11-11T08:39:25.770Z,59.83
2018-11-11T08:41:54.646Z,53.23
2018-11-11T08:44:23.524Z,56.80
2018-11-11T08:46:52.423Z,58.23
2018-11-11T08:49:21.353Z,49.57
2018-11-11T08:51:50.185Z,56.93
2018-11-11T08:54:19.189Z,56.03
2018-11-11T08:56:48.133Z,57.57
2018-11-11T08:59:16.942Z,55.10
2018-11-11T09:01:45.710Z,53.50
2018-11-11T09:04:14.386Z,54.67
2018-11-11T09:06:43.049Z,57.33
2018-11-11T09:09:12.035Z,55.77
2018-11-11T09:11:41.340Z,61.97
2018-11-11T09:14:10.142Z,51.93
2018-11-11T09:16:39.143Z,57.97
2018-11-11T09:19:08.088Z,52.67
2018-11-11T09:21:37.016Z,51.20
2018-11-11T09:24:06.329Z,52.73
2018-11-11T09:26:35.233Z,49.93
2018-11-11T09:29:04.971Z,51.03
2018-11-11T09:31:33.998Z,65.47
2018-11-11T09:34:02.743Z,50.90
2018-11-11T09:36:31.502Z,52.30
2018-11-11T09:39:01.250Z,43.87
2018-11-11T09:41:30.494Z,53.47
2018-11-11T09:43:59.582Z,54.30
2018-11-11T09:46:28.622Z,48.70
2018-11-11T09:48:57.467Z,48.33
2018-11-11T09:51:26.758Z,55.43
2018-11-11T09:53:55.607Z,42.70
2018-11-11T09:56:24.542Z,47.67
2018-11-11T09:58:53.443Z,45.03
2018-11-11T10:01:22.685Z,49.37
2018-11-11T10:04:56.997Z,42.77
2018-11-11T10:07:35.876Z,45.87
2018-11-11T10:10:12.028Z,48.30
2018-11-11T10:12:46.946Z,46.10
2018-11-11T10:15:23.514Z,43.53
2018-11-11T10:17:57.754Z,40.00
2018-11-11T10:20:31.723Z,36.50
2018-11-11T10:23:35.351Z,39.67
2018-11-11T10:26:07.850Z,40.80
2018-11-11T10:28:41.242Z,42.57
2018-11-11T10:31:20.102Z,38.80
2018-11-11T10:33:59.455Z,39.70
2018-11-11T10:36:34.256Z,32.60
2018-11-11T10:39:10.019Z,31.10
2018-11-11T10:41:44.141Z,31.47
2018-11-11T10:44:20.050Z,31.30
2018-11-11T10:46:53.904Z,31.53
2018-11-11T10:49:27.697Z,30.60
2018-11-11T10:51:56.639Z,24.53
2018-11-11T10:54:25.510Z,32.87
2018-11-11T10:56:54.243Z,35.50
2018-11-11T10:59:23.060Z,31.33
2018-11-11T11:02:59.133Z,28.67
2018-11-11T11:05:27.876Z,27.90
2018-11-11T11:07:56.846Z,28.90
2018-11-11T11:10:25.784Z,41.60
2018-11-11T11:12:55.038Z,36.90
2018-11-11T11:15:23.993Z,31.90
2018-11-11T11:17:52.779Z,26.60
2018-11-11T11:20:21.716Z,31.67
2018-11-11T11:22:50.888Z,30.83
2018-11-11T11:25:19.959Z,44.53
2018-11-11T11:27:49.142Z,38.60
2018-11-11T11:30:18.266Z,38.43
2018-11-11T11:32:46.976Z,34.43
2018-11-11T11:35:15.783Z,33.67
2018-11-11T11:37:44.742Z,31.80
2018-11-11T11:40:13.614Z,35.10
2018-11-11T11:42:42.512Z,29.10
2018-11-11T11:45:12.318Z,33.50
2018-11-11T11:47:41.939Z,26.37
2018-11-11T11:50:12.399Z,31.83
2018-11-11T11:52:42.136Z,34.00
2018-11-11T11:55:11.723Z,26.07
2018-11-11T11:57:40.885Z,25.30
2018-11-11T12:00:11.939Z,22.33
2018-11-11T12:02:40.996Z,29.03
2018-11-11T12:05:10.271Z,23.80
2018-11-11T12:07:39.250Z,23.00
2018-11-11T12:10:09.746Z,25.53
2018-11-11T12:12:39.467Z,24.70
2018-11-11T12:15:09.523Z,17.07
2018-11-11T12:17:38.552Z,20.53
2018-11-11T12:20:07.895Z,21.40
2018-11-11T12:22:36.617Z,25.43
2018-11-11T12:25:06.267Z,21.93
2018-11-11T12:27:35.156Z,24.37
2018-11-11T12:30:04.346Z,27.97
2018-11-11T12:32:33.251Z,26.80
2018-11-11T12:35:01.956Z,31.80
2018-11-11T12:37:30.627Z,26.20
2018-11-11T12:39:59.701Z,28.83
2018-11-11T12:42:28.292Z,24.93
2018-11-11T12:44:57.276Z,30.40
2018-11-11T12:47:26.538Z,29.50
2018-11-11T12:49:55.694Z,28.57
2018-11-11T12:52:24.469Z,31.77
2018-11-11T12:54:53.349Z,26.37
2018-11-11T12:57:22.576Z,29.67
2018-11-11T12:59:51.451Z,31.03
2018-11-11T13:02:20.242Z,24.10
2018-11-11T13:04:49.126Z,36.77
2018-11-11T13:07:17.753Z,25.73
2018-11-11T13:09:46.511Z,27.37
2018-11-11T13:12:15.400Z,24.53
2018-11-11T13:14:44.150Z,28.60
2018-11-11T13:17:13.238Z,29.20
2018-11-11T13:19:42.036Z,28.40
2018-11-11T13:22:11.036Z,30.93
2018-11-11T13:24:39.767Z,26.00
2018-11-11T13:27:09.454Z,28.93
2018-11-11T13:29:38.493Z,28.97
2018-11-11T13:32:07.365Z,30.17
2018-11-11T13:34:36.387Z,33.07
2018-11-11T13:37:05.142Z,25.37
2018-11-11T13:39:34.285Z,32.07
2018-11-11T13:42:03.237Z,30.23
2018-11-11T13:44:32.160Z,31.00
2018-11-11T13:47:01.583Z,36.77
2018-11-11T13:49:30.526Z,26.67
2018-11-11T13:51:59.342Z,25.73
2018-11-11T13:54:28.306Z,26.90
2018-11-11T13:56:57.027Z,31.47
2018-11-11T13:59:26.096Z,28.73
2018-11-11T14:01:55.174Z,32.53
2018-11-11T14:04:23.901Z,30.17
2018-11-11T14:06:51.505Z,31.10
2018-11-11T14:09:20.515Z,35.70
2018-11-11T14:11:49.378Z,30.73
2018-11-11T14:14:18.522Z,24.77
2018-11-11T14:16:47.503Z,30.00
2018-11-11T14:19:16.704Z,33.63
2018-11-11T14:21:45.498Z,40.03
2018-11-11T14:24:14.231Z,37.10
2018-11-11T14:26:43.671Z,39.97
2018-11-11T14:29:12.411Z,38.63
2018-11-11T14:31:41.382Z,34.60
2018-11-11T14:34:10.062Z,45.83
2018-11-11T14:36:38.810Z,44.83
2018-11-11T14:39:11.062Z,43.73
2018-11-11T14:41:40.725Z,56.50
2018-11-11T14:44:09.767Z,214.97
2018-11-11T14:46:39.200Z,129.60
2018-11-11T14:49:08.850Z,109.70
2018-11-11T14:51:37.938Z,89.93
2018-11-11T14:54:07.085Z,47.83
2018-11-11T14:56:36.014Z,39.73
2018-11-11T14:59:05.234Z,57.80
2018-11-11T15:01:34.158Z,47.67
2018-11-11T15:04:03.325Z,49.93
2018-11-11T15:06:32.182Z,55.83
2018-11-11T15:09:00.927Z,54.43
2018-11-11T15:11:30.197Z,63.87
2018-11-11T15:13:59.008Z,70.47
2018-11-11T15:16:28.018Z,72.07
2018-11-11T15:18:57.601Z,75.07
2018-11-11T15:21:26.730Z,73.33
2018-11-11T15:23:55.621Z,73.00
2018-11-11T15:26:24.535Z,62.67
2018-11-11T15:28:53.447Z,72.07
2018-11-11T15:31:22.344Z,68.20
2018-11-11T15:33:51.083Z,77.13
2018-11-11T15:36:20.162Z,74.40
2018-11-11T15:38:48.962Z,67.20
2018-11-11T15:41:18.068Z,77.33
2018-11-11T15:43:46.992Z,73.00
2018-11-11T15:46:15.850Z,81.27
2018-11-11T15:48:44.745Z,97.43
2018-11-11T15:51:13.524Z,89.00
2018-11-11T15:53:42.697Z,80.40
2018-11-11T15:56:11.505Z,79.77
2018-11-11T15:58:40.453Z,77.87
2018-11-11T16:01:09.285Z,80.93
2018-11-11T16:03:38.277Z,64.37
2018-11-11T16:06:07.531Z,81.20
2018-11-11T16:08:36.275Z,64.43
2018-11-11T16:11:05.814Z,72.63
2018-11-11T16:13:35.085Z,59.63
2018-11-11T16:16:03.787Z,67.07
2018-11-11T16:18:33.624Z,66.23
2018-11-11T16:21:02.988Z,57.70
2018-11-11T16:23:32.141Z,61.30
2018-11-11T16:26:01.173Z,57.70
2018-11-11T16:28:29.906Z,57.50
2018-11-11T16:30:58.694Z,56.97
2018-11-11T16:33:27.575Z,48.50
2018-11-11T16:35:56.357Z,60.10
2018-11-11T16:38:25.189Z,70.43
2018-11-11T16:40:54.067Z,57.40
2018-11-11T16:43:23.078Z,64.83
2018-11-11T16:45:51.775Z,60.60
2018-11-11T16:48:20.864Z,67.23
2018-11-11T16:50:50.649Z,59.33
2018-11-11T16:53:19.740Z,67.97
2018-11-11T16:55:48.986Z,68.30
2018-11-11T16:58:17.838Z,62.40
2018-11-11T17:00:46.614Z,70.07
2018-11-11T17:03:15.295Z,81.43
2018-11-11T17:05:44.202Z,67.60
2018-11-11T17:08:12.959Z,66.80
2018-11-11T17:10:41.893Z,76.93
2018-11-11T17:13:12.025Z,68.80
2018-11-11T17:15:40.953Z,69.97
2018-11-11T17:18:09.837Z,81.07
2018-11-11T17:20:38.907Z,62.97
2018-11-11T17:23:08.507Z,68.57
2018-11-11T17:25:37.439Z,66.10
2018-11-11T17:28:06.836Z,65.07
2018-11-11T17:30:35.614Z,79.23
2018-11-11T17:33:04.708Z,86.37
2018-11-11T17:35:33.723Z,107.33
2018-11-11T17:38:02.675Z,92.73
2018-11-11T17:40:32.025Z,95.00
2018-11-11T17:43:01.723Z,92.07
2018-11-11T17:45:30.818Z,89.27
2018-11-11T17:47:59.962Z,99.57
2018-11-11T17:50:30.158Z,92.20
2018-11-11T17:53:00.163Z,87.30
2018-11-11T17:55:29.829Z,96.30
2018-11-11T17:57:58.971Z,95.87
2018-11-11T18:00:28.920Z,93.10
2018-11-11T18:02:58.294Z,97.67
2018-11-11T18:05:28.375Z,114.17
2018-11-11T18:07:57.180Z,91.50
2018-11-11T18:10:26.715Z,89.57
2018-11-11T18:12:55.607Z,116.67
2018-11-11T18:15:27.097Z,96.73
2018-11-11T18:17:55.749Z,92.73
2018-11-11T18:20:26.921Z,96.30
2018-11-11T18:22:56.334Z,111.33
2018-11-11T18:25:25.164Z,100.03
2018-11-11T18:27:53.898Z,99.83
2018-11-11T18:30:25.347Z,99.90
2018-11-11T18:32:54.094Z,94.90
2018-11-11T18:35:29.662Z,104.83
2018-11-11T18:37:58.902Z,93.07
2018-11-11T18:40:28.919Z,99.53
2018-11-11T18:42:57.854Z,84.33
2018-11-11T18:45:28.070Z,83.73
2018-11-11T18:47:57.284Z,83.43
2018-11-11T18:50:27.531Z,83.60
2018-11-11T18:52:56.357Z,82.10
2018-11-11T18:55:25.382Z,83.87
2018-11-11T18:57:54.074Z,91.80
2018-11-11T19:00:24.402Z,95.97
2018-11-11T19:02:54.009Z,88.97
2018-11-11T19:05:23.418Z,82.00
2018-11-11T19:07:52.364Z,98.53
2018-11-11T19:10:29.173Z,96.57
2018-11-11T19:12:59.709Z,103.30
2018-11-11T19:15:28.759Z,102.27
2018-11-11T19:17:57.694Z,94.33
2018-11-11T19:20:27.117Z,111.73
2018-11-11T19:22:55.958Z,114.00
2018-11-11T19:25:26.257Z,142.70
2018-11-11T19:27:55.546Z,146.80
2018-11-11T19:30:25.652Z,113.47
2018-11-11T19:32:54.645Z,104.17
2018-11-11T19:35:23.430Z,153.73
2018-11-11T19:37:53.404Z,133.83
2018-11-11T19:40:23.466Z,134.80
2018-11-11T19:42:53.132Z,122.90
2018-11-11T19:45:23.355Z,123.33
2018-11-11T19:47:52.210Z,117.03
2018-11-11T19:50:22.294Z,106.20
2018-11-11T19:52:52.526Z,102.50
2018-11-11T19:55:21.892Z,95.93
2018-11-11T19:57:51.518Z,102.33
2018-11-11T20:00:23.340Z,97.60
2018-11-11T20:02:52.741Z,95.10
2018-11-11T20:05:22.192Z,87.70
2018-11-11T20:07:52.162Z,102.17
2018-11-11T20:10:21.630Z,89.17
2018-11-11T20:12:50.825Z,87.83
2018-11-11T20:15:23.045Z,93.17
2018-11-11T20:17:52.027Z,89.30
2018-11-11T20:20:23.291Z,92.63
2018-11-11T20:22:52.333Z,88.17
2018-11-11T20:25:21.739Z,87.77
2018-11-11T20:27:50.594Z,97.77
2018-11-11T20:30:25.055Z,93.57
2018-11-11T20:32:53.879Z,93.70
2018-11-11T20:35:24.243Z,91.27
2018-11-11T20:37:53.133Z,96.00
2018-11-11T20:40:23.023Z,93.03
2018-11-11T20:42:52.239Z,89.23
2018-11-11T20:45:22.498Z,87.13
2018-11-11T20:47:52.166Z,93.37
2018-11-11T20:50:22.336Z,109.37
2018-11-11T20:52:52.867Z,119.73
2018-11-11T20:55:22.229Z,131.97
2018-11-11T20:57:51.655Z,135.87
2018-11-11T21:00:21.819Z,123.97
2018-11-11T21:02:50.759Z,119.40
2018-11-11T21:05:21.374Z,116.83
2018-11-11T21:07:50.447Z,117.57
2018-11-11T21:10:20.674Z,129.67
2018-11-11T21:12:49.355Z,146.17
2018-11-11T21:15:19.747Z,134.13
2018-11-11T21:17:49.308Z,118.13
2018-11-11T21:20:19.920Z,112.97
2018-11-11T21:22:48.787Z,86.83
2018-11-11T21:25:17.569Z,86.43
2018-11-11T21:27:47.105Z,89.30
2018-11-11T21:30:17.455Z,102.13
2018-11-11T21:32:46.367Z,95.40
2018-11-11T21:35:15.447Z,91.67
2018-11-11T21:37:44.531Z,90.83
2018-11-11T21:40:15.362Z,93.23
2018-11-11T21:42:45.537Z,93.73
2018-11-11T21:45:15.970Z,100.13
2018-11-11T21:47:45.129Z,102.73
2018-11-11T21:50:17.511Z,104.57
2018-11-11T21:53:49.883Z,99.63
2018-11-11T21:56:19.331Z,99.47
2018-11-11T21:58:48.043Z,98.37
2018-11-11T22:01:16.698Z,87.07
2018-11-11T22:03:45.544Z,89.70
2018-11-11T22:06:14.526Z,85.40
2018-11-11T22:08:43.567Z,84.63
2018-11-11T22:11:12.847Z,84.33
2018-11-11T22:13:42.003Z,90.97
2018-11-11T22:16:10.919Z,82.00
2018-11-11T22:18:40.739Z,71.07
2018-11-11T22:21:09.528Z,76.40
2018-11-11T22:23:38.353Z,73.47
2018-11-11T22:26:07.462Z,67.90
2018-11-11T22:28:36.117Z,77.43
2018-11-11T22:31:04.694Z,77.23
2018-11-11T22:33:33.450Z,72.67
2018-11-11T22:36:02.161Z,79.73
2018-11-11T22:38:31.045Z,87.50
2018-11-11T22:41:00.260Z,82.80
2018-11-11T22:43:29.140Z,75.43
2018-11-11T22:45:58.086Z,76.17
2018-11-11T22:48:27.446Z,76.10
2018-11-11T22:50:56.428Z,84.53
2018-11-11T22:53:25.125Z,79.07
2018-11-11T22:55:54.521Z,73.07
2018-11-11T22:58:23.327Z,70.37
2018-11-11T23:00:57.401Z,69.43
2018-11-11T23:03:26.387Z,67.50
2018-11-11T23:05:55.382Z,63.80
2018-11-11T23:08:24.443Z,59.90
2018-11-11T23:10:53.919Z,60.73
2018-11-11T23:13:22.994Z,55.07
2018-11-11T23:15:52.282Z,52.20
2018-11-11T23:18:21.137Z,52.13
2018-11-11T23:20:50.092Z,53.77
2018-11-11T23:23:19.378Z,51.60
2018-11-11T23:25:48.484Z,46.03
2018-11-11T23:28:17.289Z,50.20
2018-11-11T23:30:46.254Z,53.47
2018-11-11T23:33:15.207Z,47.50
2018-11-11T23:35:44.202Z,53.13
2018-11-11T23:38:13.145Z,52.77
2018-11-11T23:40:41.778Z,48.17
2018-11-11T23:43:10.509Z,51.50
2018-11-11T23:45:39.717Z,45.80
2018-11-11T23:48:08.597Z,48.17
2018-11-11T23:50:37.510Z,53.57
2018-11-11T23:53:06.714Z,54.30
2018-11-11T23:55:35.696Z,38.90
2018-11-11T23:58:04.470Z,39.27
